createdAt,value
2023-04-27T00:00:24.641Z,3.67
2023-04-27T00:05:29.547Z,3.70
2023-04-27T00:10:34.001Z,4.10
2023-04-27T00:15:37.090Z,4.07
2023-04-27T00:20:40.206Z,3.83
2023-04-27T00:25:44.655Z,4.47
2023-04-27T00:30:48.884Z,4.50
2023-04-27T00:35:51.994Z,4.10
2023-04-27T00:41:03.429Z,4.03
2023-04-27T00:46:06.813Z,4.40
2023-04-27T00:51:10.215Z,4.40
2023-04-27T00:56:14.754Z,4.30
2023-04-27T01:01:18.054Z,4.73
2023-04-27T01:06:22.294Z,4.57
2023-04-27T01:11:26.966Z,5.00
2023-04-27T01:16:29.996Z,4.77
2023-04-27T01:21:33.143Z,4.80
2023-04-27T01:26:37.632Z,4.77
2023-04-27T01:31:40.995Z,4.67
2023-04-27T01:36:44.093Z,4.83
2023-04-27T01:41:48.645Z,4.70
2023-04-27T01:46:52.248Z,4.77
2023-04-27T01:51:55.600Z,4.70
2023-04-27T01:57:00.214Z,4.43
2023-04-27T02:02:03.760Z,4.70
2023-04-27T02:07:07.060Z,5.03
2023-04-27T02:12:12.442Z,5.03
2023-04-27T02:17:15.617Z,5.53
2023-04-27T02:22:18.660Z,5.67
2023-04-27T02:27:23.100Z,5.40
2023-04-27T02:32:27.289Z,6.10
2023-04-27T02:37:30.445Z,6.60
2023-04-27T02:42:34.970Z,5.63
2023-04-27T02:47:39.369Z,7.03
2023-04-27T02:52:42.567Z,6.53
2023-04-27T02:57:47.187Z,6.90
2023-04-27T03:02:51.084Z,5.90
2023-04-27T03:07:54.346Z,6.13
2023-04-27T03:12:58.735Z,5.33
2023-04-27T03:18:01.995Z,6.00
2023-04-27T03:23:05.080Z,6.53
2023-04-27T03:28:09.463Z,6.10
2023-04-27T03:33:14.391Z,5.77
2023-04-27T03:38:17.919Z,5.30
2023-04-27T03:43:22.778Z,5.80
2023-04-27T03:48:25.843Z,5.57
2023-04-27T03:53:31.882Z,5.43
2023-04-27T03:58:37.130Z,4.80
2023-04-27T04:03:55.517Z,5.03
2023-04-27T04:08:59.362Z,6.00
2023-04-27T04:14:03.917Z,4.80
2023-04-27T04:19:07.235Z,5.67
2023-04-27T04:24:11.203Z,5.37
2023-04-27T04:29:17.273Z,5.50
2023-04-27T04:34:20.865Z,5.50
2023-04-27T04:39:24.372Z,5.60
2023-04-27T04:44:28.912Z,6.57
2023-04-27T04:49:32.345Z,5.53
2023-04-27T04:54:35.654Z,5.37
2023-04-27T04:59:40.419Z,5.33
2023-04-27T05:04:43.675Z,5.03
2023-04-27T05:09:46.728Z,5.40
2023-04-27T05:14:52.990Z,5.33
2023-04-27T05:19:56.183Z,6.03
2023-04-27T05:24:59.461Z,5.60
2023-04-27T05:30:04.144Z,5.73
2023-04-27T05:35:07.516Z,4.93
2023-04-27T05:40:11.089Z,4.77
2023-04-27T05:45:16.049Z,4.97
2023-04-27T05:50:19.434Z,4.90
2023-04-27T05:55:22.767Z,5.13
2023-04-27T06:00:27.219Z,4.40
2023-04-27T06:05:30.557Z,4.83
2023-04-27T06:10:33.947Z,5.00
2023-04-27T06:15:38.430Z,4.63
2023-04-27T06:20:42.179Z,4.00
2023-04-27T06:25:45.506Z,4.30
2023-04-27T06:30:50.046Z,3.97
2023-04-27T06:35:53.084Z,4.13
2023-04-27T06:40:57.009Z,4.03
2023-04-27T06:46:01.563Z,4.30
2023-04-27T06:51:05.140Z,3.77
2023-04-27T06:56:12.257Z,3.90
2023-04-27T07:01:16.901Z,4.17
2023-04-27T07:06:20.005Z,3.63
2023-04-27T07:11:23.154Z,3.97
2023-04-27T07:16:27.696Z,4.00
2023-04-27T07:21:30.943Z,3.83
2023-04-27T07:26:33.966Z,4.10
2023-04-27T07:31:38.606Z,3.93
2023-04-27T07:36:41.776Z,3.60
2023-04-27T07:41:44.885Z,3.93
2023-04-27T07:46:50.194Z,3.90
2023-04-27T07:51:55.614Z,3.63
2023-04-27T07:56:59.195Z,3.60
2023-04-27T08:02:18.562Z,3.80
2023-04-27T08:07:22.642Z,3.93
2023-04-27T08:12:25.869Z,4.13
2023-04-27T08:17:30.482Z,3.40
2023-04-27T08:22:34.200Z,3.57
2023-04-27T08:27:38.382Z,3.03
2023-04-27T08:32:42.913Z,3.93
2023-04-27T08:37:45.928Z,3.23
2023-04-27T08:42:56.297Z,3.83
2023-04-27T08:48:01.320Z,3.30
2023-04-27T08:53:06.718Z,2.93
2023-04-27T08:58:09.947Z,3.23
2023-04-27T09:03:24.457Z,3.30
2023-04-27T09:08:27.789Z,3.77
2023-04-27T09:13:36.612Z,3.10
2023-04-27T09:18:43.693Z,3.40
2023-04-27T09:23:47.137Z,3.60
2023-04-27T09:28:51.826Z,3.63
2023-04-27T09:33:57.586Z,3.20
2023-04-27T09:39:05.322Z,3.30
2023-04-27T09:44:10.110Z,3.13
2023-04-27T09:49:18.883Z,3.57
2023-04-27T09:54:26.171Z,3.40
2023-04-27T10:00:07.783Z,3.03
2023-04-27T10:05:29.889Z,3.70
2023-04-27T10:10:43.957Z,3.53
2023-04-27T10:15:47.180Z,3.37
2023-04-27T10:20:52.792Z,3.70
2023-04-27T10:25:57.349Z,3.53
2023-04-27T10:31:11.990Z,4.00
2023-04-27T10:36:17.247Z,3.57
2023-04-27T10:41:20.806Z,3.33
2023-04-27T10:46:23.963Z,3.38
2023-04-27T10:51:29.403Z,3.53
2023-04-27T10:56:33.929Z,3.80
2023-04-27T11:01:38.077Z,3.85
2023-04-27T11:06:46.925Z,4.30
2023-04-27T11:11:50.112Z,3.73
2023-04-27T11:16:53.292Z,4.03
2023-04-27T11:22:05.174Z,4.25
2023-04-27T11:27:08.181Z,4.30
2023-04-27T11:32:20.944Z,4.07
2023-04-27T11:37:27.982Z,4.25
2023-04-27T11:42:31.602Z,3.90
2023-04-27T11:47:35.678Z,4.22
2023-04-27T11:52:42.608Z,4.43
2023-04-27T11:57:46.077Z,4.18
2023-04-27T12:02:49.785Z,3.67
2023-04-27T12:07:55.025Z,3.83
2023-04-27T12:12:58.184Z,3.63
2023-04-27T12:18:01.641Z,3.85
2023-04-27T12:23:06.217Z,4.18
2023-04-27T12:28:09.226Z,3.55
2023-04-27T12:33:12.395Z,4.00
2023-04-27T12:38:16.989Z,4.03
2023-04-27T12:43:20.102Z,3.40
2023-04-27T12:48:23.686Z,3.30
2023-04-27T12:53:29.833Z,4.10
2023-04-27T12:58:33.068Z,3.53
2023-04-27T13:03:36.419Z,3.78
2023-04-27T13:08:42.189Z,3.80
2023-04-27T13:13:46.046Z,3.95
2023-04-27T13:18:50.642Z,3.97
2023-04-27T13:23:55.125Z,3.50
2023-04-27T13:28:58.406Z,4.00
2023-04-27T13:34:04.294Z,3.92
2023-04-27T13:39:08.934Z,3.75
2023-04-27T13:44:12.197Z,3.40
2023-04-27T13:49:15.583Z,3.45
2023-04-27T13:54:20.158Z,3.38
2023-04-27T13:59:26.328Z,3.40
2023-04-27T14:04:29.743Z,3.70
2023-04-27T14:09:34.477Z,3.47
2023-04-27T14:14:37.916Z,4.53
2023-04-27T14:19:41.737Z,3.60
2023-04-27T14:24:46.629Z,4.32
2023-04-27T14:29:49.986Z,3.80
2023-04-27T14:34:53.504Z,3.90
2023-04-27T14:39:58.685Z,3.92
2023-04-27T14:45:02.179Z,4.00
2023-04-27T14:50:06.421Z,3.70
2023-04-27T14:55:13.471Z,3.97
2023-04-27T15:00:19.344Z,4.35
2023-04-27T15:05:22.800Z,5.07
2023-04-27T15:10:27.955Z,4.80
2023-04-27T15:15:31.458Z,4.75
2023-04-27T15:20:34.732Z,4.20
2023-04-27T15:25:39.231Z,4.32
2023-04-27T15:30:42.756Z,4.18
2023-04-27T15:35:45.947Z,4.38
2023-04-27T15:40:50.935Z,3.88
2023-04-27T15:45:55.240Z,4.45
2023-04-27T15:50:58.308Z,3.78
2023-04-27T15:56:02.849Z,4.40
2023-04-27T16:01:06.147Z,3.72
2023-04-27T16:06:09.786Z,3.90
2023-04-27T16:11:14.477Z,4.15
2023-04-27T16:16:17.989Z,3.90
2023-04-27T16:21:21.548Z,4.30
2023-04-27T16:26:27.826Z,4.38
2023-04-27T16:31:31.570Z,4.43
2023-04-27T16:36:34.898Z,3.80
2023-04-27T16:41:39.257Z,4.30
2023-04-27T16:46:42.571Z,4.30
2023-04-27T16:51:46.134Z,3.33
2023-04-27T16:56:52.690Z,3.97
2023-04-27T17:01:59.974Z,4.15
2023-04-27T17:07:07.353Z,3.92
2023-04-27T17:12:13.803Z,3.77
2023-04-27T17:17:16.974Z,3.58
2023-04-27T17:22:20.266Z,3.83
2023-04-27T17:27:28.834Z,3.45
2023-04-27T17:32:34.762Z,3.53
2023-04-27T17:37:38.424Z,3.60
2023-04-27T17:42:43.464Z,3.80
2023-04-27T17:47:47.192Z,3.60
2023-04-27T17:52:51.242Z,4.30
2023-04-27T17:57:55.855Z,4.40
2023-04-27T18:02:59.193Z,4.43
2023-04-27T18:08:02.696Z,4.17
2023-04-27T18:13:07.302Z,3.90
2023-04-27T18:18:11.001Z,4.20
2023-04-27T18:23:14.537Z,4.13
2023-04-27T18:28:19.086Z,4.20
2023-04-27T18:33:22.867Z,4.20
2023-04-27T18:38:26.068Z,3.93
2023-04-27T18:43:30.721Z,3.60
2023-04-27T18:48:33.928Z,4.27
2023-04-27T18:53:37.554Z,4.30
2023-04-27T18:58:42.000Z,4.10
2023-04-27T19:03:45.290Z,4.40
2023-04-27T19:08:49.746Z,3.80
2023-04-27T19:13:57.471Z,4.00
2023-04-27T19:19:01.459Z,4.10
2023-04-27T19:24:05.125Z,4.60
2023-04-27T19:29:09.651Z,4.47
2023-04-27T19:34:12.921Z,4.43
2023-04-27T19:39:16.156Z,5.00
2023-04-27T19:44:21.927Z,4.93
2023-04-27T19:49:25.204Z,5.47
2023-04-27T19:54:28.415Z,5.83
2023-04-27T19:59:33.323Z,5.40
2023-04-27T20:04:36.840Z,4.77
2023-04-27T20:09:43.326Z,4.57
2023-04-27T20:14:49.391Z,4.50
2023-04-27T20:19:56.536Z,4.53
2023-04-27T20:25:00.281Z,4.47
2023-04-27T20:30:05.519Z,4.50
2023-04-27T20:35:11.278Z,4.50
2023-04-27T20:40:17.730Z,5.43
2023-04-27T20:45:23.131Z,4.77
2023-04-27T20:50:26.551Z,5.33
2023-04-27T20:55:29.825Z,5.07
2023-04-27T21:00:35.969Z,5.03
2023-04-27T21:05:39.127Z,5.30
2023-04-27T21:10:42.528Z,4.90
2023-04-27T21:15:47.071Z,4.83
2023-04-27T21:20:51.146Z,5.13
2023-04-27T21:25:54.613Z,5.70
2023-04-27T21:30:59.115Z,5.83
2023-04-27T21:36:03.869Z,5.10
2023-04-27T21:41:06.997Z,5.07
2023-04-27T21:46:11.661Z,5.27
2023-04-27T21:51:14.901Z,5.30
2023-04-27T21:56:18.032Z,5.37
2023-04-27T22:01:23.683Z,4.60
2023-04-27T22:06:27.624Z,5.03
2023-04-27T22:11:31.189Z,5.60
2023-04-27T22:16:36.464Z,5.17
2023-04-27T22:21:39.669Z,5.40
2023-04-27T22:26:43.703Z,5.00
2023-04-27T22:31:48.702Z,5.30
2023-04-27T22:36:52.242Z,5.23
2023-04-27T22:41:55.415Z,5.33
2023-04-27T22:47:00.999Z,5.70
2023-04-27T22:52:04.221Z,5.47
2023-04-27T22:57:07.357Z,5.20
2023-04-27T23:02:11.806Z,5.63
2023-04-27T23:07:18.139Z,5.93
2023-04-27T23:12:22.190Z,6.33
2023-04-27T23:17:30.901Z,5.00
2023-04-27T23:22:34.315Z,5.63
2023-04-27T23:27:37.406Z,5.60
2023-04-27T23:32:42.167Z,6.27
2023-04-27T23:37:45.372Z,6.30
2023-04-27T23:42:50.978Z,6.40
2023-04-27T23:47:58.183Z,6.10
2023-04-27T23:53:03.483Z,6.70
2023-04-27T23:58:06.680Z,5.63
